sensor_id;sensor_type;location;lat;lon;timestamp;P1;durP1;ratioP1;P2;durP2;ratioP2
13240;SDS011;6687;47.790;7.322;2023-01-15T06:11:47;0.38;;;0.38;;
13240;SDS011;6687;47.790;7.322;2023-01-15T06:14:14;0.17;;;0.15;;
13240;SDS011;6687;47.790;7.322;2023-01-15T06:16:41;0.00;;;0.00;;
13240;SDS011;6687;47.790;7.322;2023-01-15T06:19:08;0.20;;;0.20;;
13240;SDS011;6687;47.790;7.322;2023-01-15T06:21:37;0.00;;;0.00;;
13240;SDS011;6687;47.790;7.322;2023-01-15T06:24:04;0.28;;;0.28;;
13240;SDS011;6687;47.790;7.322;2023-01-15T06:26:32;0.00;;;0.00;;
13240;SDS011;6687;47.790;7.322;2023-01-15T06:29:00;0.00;;;0.00;;
13240;SDS011;6687;47.790;7.322;2023-01-15T06:31:27;0.10;;;0.10;;
13240;SDS011;6687;47.790;7.322;2023-01-15T06:33:54;0.00;;;0.00;;
13240;SDS011;6687;47.790;7.322;2023-01-15T06:36:21;0.10;;;0.10;;
13240;SDS011;6687;47.790;7.322;2023-01-15T06:38:50;0.08;;;0.08;;
13240;SDS011;6687;47.790;7.322;2023-01-15T06:41:17;0.00;;;0.00;;
13240;SDS011;6687;47.790;7.322;2023-01-15T06:44:08;0.00;;;0.00;;
13240;SDS011;6687;47.790;7.322;2023-01-15T06:46:54;0.00;;;0.00;;
13240;SDS011;6687;47.790;7.322;2023-01-15T06:49:39;0.20;;;0.20;;
13240;SDS011;6687;47.790;7.322;2023-01-15T06:52:06;0.25;;;0.00;;
13240;SDS011;6687;47.790;7.322;2023-01-15T06:54:33;0.00;;;0.00;;
13240;SDS011;6687;47.790;7.322;2023-01-15T06:57:00;0.00;;;0.00;;
13240;SDS011;6687;47.790;7.322;2023-01-15T06:59:28;0.10;;;0.10;;
13240;SDS011;6687;47.790;7.322;2023-01-15T07:01:55;0.00;;;0.00;;
13240;SDS011;6687;47.790;7.322;2023-01-15T07:04:22;0.00;;;0.00;;
13240;SDS011;6687;47.790;7.322;2023-01-15T07:06:49;0.00;;;0.00;;
13240;SDS011;6687;47.790;7.322;2023-01-15T07:09:15;0.00;;;0.00;;
13240;SDS011;6687;47.790;7.322;2023-01-15T07:11:42;0.00;;;0.00;;
13240;SDS011;6687;47.790;7.322;2023-01-15T07:14:15;0.00;;;0.00;;
13240;SDS011;6687;47.790;7.322;2023-01-15T07:16:44;0.03;;;0.03;;
13240;SDS011;6687;47.790;7.322;2023-01-15T07:19:11;0.00;;;0.00;;
13240;SDS011;6687;47.790;7.322;2023-01-15T07:21:38;0.10;;;0.10;;
13240;SDS011;6687;47.790;7.322;2023-01-15T07:24:05;0.00;;;0.00;;
13240;SDS011;6687;47.790;7.322;2023-01-15T07:26:32;0.00;;;0.00;;
13240;SDS011;6687;47.790;7.322;2023-01-15T07:28:59;0.00;;;0.00;;
13240;SDS011;6687;47.790;7.322;2023-01-15T07:31:26;0.00;;;0.00;;
13240;SDS011;6687;47.790;7.322;2023-01-15T07:33:55;0.00;;;0.00;;
13240;SDS011;6687;47.790;7.322;2023-01-15T07:36:22;0.00;;;0.00;;
13240;SDS011;6687;47.790;7.322;2023-01-15T07:38:49;0.10;;;0.10;;
13240;SDS011;6687;47.790;7.322;2023-01-15T07:41:16;0.00;;;0.00;;
13240;SDS011;6687;47.790;7.322;2023-01-15T07:44:00;0.00;;;0.00;;
13240;SDS011;6687;47.790;7.322;2023-01-15T07:46:44;0.00;;;0.00;;
13240;SDS011;6687;47.790;7.322;2023-01-15T07:49:30;0.00;;;0.00;;
13240;SDS011;6687;47.790;7.322;2023-01-15T07:52:13;0.00;;;0.00;;
13240;SDS011;6687;47.790;7.322;2023-01-15T07:54:40;0.00;;;0.00;;
13240;SDS011;6687;47.790;7.322;2023-01-15T07:57:08;0.30;;;0.30;;
13240;SDS011;6687;47.790;7.322;2023-01-15T07:59:35;0.30;;;0.30;;
13240;SDS011;6687;47.790;7.322;2023-01-15T08:02:02;0.20;;;0.20;;
13240;SDS011;6687;47.790;7.322;2023-01-15T08:04:30;0.00;;;0.00;;
13240;SDS011;6687;47.790;7.322;2023-01-15T08:06:58;0.00;;;0.00;;
13240;SDS011;6687;47.790;7.322;2023-01-15T08:09:25;0.10;;;0.10;;
13240;SDS011;6687;47.790;7.322;2023-01-15T08:11:52;0.20;;;0.20;;
13240;SDS011;6687;47.790;7.322;2023-01-15T08:14:36;0.52;;;0.40;;
13240;SDS011;6687;47.790;7.322;2023-01-15T08:17:21;0.60;;;0.60;;
13240;SDS011;6687;47.790;7.322;2023-01-15T08:19:49;0.40;;;0.40;;
13240;SDS011;6687;47.790;7.322;2023-01-15T08:22:16;0.40;;;0.40;;
13240;SDS011;6687;47.790;7.322;2023-01-15T08:24:42;0.32;;;0.32;;
13240;SDS011;6687;47.790;7.322;2023-01-15T08:27:09;0.20;;;0.20;;
13240;SDS011;6687;47.790;7.322;2023-01-15T08:29:38;0.10;;;0.10;;
13240;SDS011;6687;47.790;7.322;2023-01-15T08:32:04;0.10;;;0.10;;
13240;SDS011;6687;47.790;7.322;2023-01-15T08:34:31;0.00;;;0.00;;
13240;SDS011;6687;47.790;7.322;2023-01-15T08:36:59;0.00;;;0.00;;
13240;SDS011;6687;47.790;7.322;2023-01-15T08:39:26;0.00;;;0.00;;
13240;SDS011;6687;47.790;7.322;2023-01-15T08:41:54;0.10;;;0.10;;
13240;SDS011;6687;47.790;7.322;2023-01-15T08:44:21;0.00;;;0.00;;
13240;SDS011;6687;47.790;7.322;2023-01-15T08:46:48;0.10;;;0.10;;
13240;SDS011;6687;47.790;7.322;2023-01-15T08:49:17;0.30;;;0.10;;
13240;SDS011;6687;47.790;7.322;2023-01-15T08:51:45;0.00;;;0.00;;
13240;SDS011;6687;47.790;7.322;2023-01-15T08:54:15;0.00;;;0.00;;
13240;SDS011;6687;47.790;7.322;2023-01-15T08:56:42;0.63;;;0.10;;
13240;SDS011;6687;47.790;7.322;2023-01-15T08:59:09;0.00;;;0.00;;
13240;SDS011;6687;47.790;7.322;2023-01-15T09:01:36;0.10;;;0.10;;
13240;SDS011;6687;47.790;7.322;2023-01-15T09:04:03;0.00;;;0.00;;
13240;SDS011;6687;47.790;7.322;2023-01-15T09:06:30;0.00;;;0.00;;
13240;SDS011;6687;47.790;7.322;2023-01-15T09:08:57;0.00;;;0.00;;
13240;SDS011;6687;47.790;7.322;2023-01-15T09:11:26;0.20;;;0.20;;
13240;SDS011;6687;47.790;7.322;2023-01-15T09:13:53;0.00;;;0.00;;
13240;SDS011;6687;47.790;7.322;2023-01-15T09:16:20;0.00;;;0.00;;
13240;SDS011;6687;47.790;7.322;2023-01-15T09:18:47;0.10;;;0.10;;
13240;SDS011;6687;47.790;7.322;2023-01-15T09:21:13;0.10;;;0.10;;
13240;SDS011;6687;47.790;7.322;2023-01-15T09:23:40;0.00;;;0.00;;
13240;SDS011;6687;47.790;7.322;2023-01-15T09:26:21;0.20;;;0.20;;
13240;SDS011;6687;47.790;7.322;2023-01-15T09:28:53;0.00;;;0.00;;
13240;SDS011;6687;47.790;7.322;2023-01-15T09:31:21;0.00;;;0.00;;
13240;SDS011;6687;47.790;7.322;2023-01-15T09:33:48;0.32;;;0.20;;
13240;SDS011;6687;47.790;7.322;2023-01-15T09:36:15;0.20;;;0.20;;
13240;SDS011;6687;47.790;7.322;2023-01-15T09:38:43;0.80;;;0.05;;
13240;SDS011;6687;47.790;7.322;2023-01-15T09:41:10;0.00;;;0.00;;
13240;SDS011;6687;47.790;7.322;2023-01-15T09:44:03;0.10;;;0.10;;
13240;SDS011;6687;47.790;7.322;2023-01-15T09:46:41;0.00;;;0.00;;
13240;SDS011;6687;47.790;7.322;2023-01-15T09:49:24;0.03;;;0.03;;
13240;SDS011;6687;47.790;7.322;2023-01-15T09:52:04;0.00;;;0.00;;
13240;SDS011;6687;47.790;7.322;2023-01-15T09:54:40;0.00;;;0.00;;
13240;SDS011;6687;47.790;7.322;2023-01-15T09:57:15;0.17;;;0.17;;
13240;SDS011;6687;47.790;7.322;2023-01-15T09:59:45;0.00;;;0.00;;
13240;SDS011;6687;47.790;7.322;2023-01-15T10:02:16;0.20;;;0.20;;
13240;SDS011;6687;47.790;7.322;2023-01-15T10:04:50;0.20;;;0.20;;
13240;SDS011;6687;47.790;7.322;2023-01-15T10:07:23;0.00;;;0.00;;
13240;SDS011;6687;47.790;7.322;2023-01-15T10:09:55;0.00;;;0.00;;
13240;SDS011;6687;47.790;7.322;2023-01-15T10:12:27;0.00;;;0.00;;
13240;SDS011;6687;47.790;7.322;2023-01-15T10:15:15;0.00;;;0.00;;
13240;SDS011;6687;47.790;7.322;2023-01-15T10:17:48;0.10;;;0.10;;
13240;SDS011;6687;47.790;7.322;2023-01-15T10:20:22;0.00;;;0.00;;
13240;SDS011;6687;47.790;7.322;2023-01-15T10:23:03;0.20;;;0.20;;
13240;SDS011;6687;47.790;7.322;2023-01-15T10:25:41;0.00;;;0.00;;
13240;SDS011;6687;47.790;7.322;2023-01-15T10:28:16;0.00;;;0.00;;
13240;SDS011;6687;47.790;7.322;2023-01-15T10:30:49;0.10;;;0.10;;
13240;SDS011;6687;47.790;7.322;2023-01-15T10:33:29;0.10;;;0.10;;
13240;SDS011;6687;47.790;7.322;2023-01-15T10:36:07;0.00;;;0.00;;
13240;SDS011;6687;47.790;7.322;2023-01-15T10:38:40;0.05;;;0.05;;
13240;SDS011;6687;47.790;7.322;2023-01-15T10:41:23;0.10;;;0.10;;
13240;SDS011;6687;47.790;7.322;2023-01-15T10:43:58;0.05;;;0.05;;
13240;SDS011;6687;47.790;7.322;2023-01-15T10:46:32;0.00;;;0.00;;
13240;SDS011;6687;47.790;7.322;2023-01-15T10:49:04;0.57;;;0.38;;
13240;SDS011;6687;47.790;7.322;2023-01-15T10:51:39;0.03;;;0.00;;
13240;SDS011;6687;47.790;7.322;2023-01-15T10:54:11;1.30;;;0.10;;
13240;SDS011;6687;47.790;7.322;2023-01-15T10:56:47;0.00;;;0.00;;
13240;SDS011;6687;47.790;7.322;2023-01-15T10:59:33;0.20;;;0.20;;
13240;SDS011;6687;47.790;7.322;2023-01-15T11:02:13;0.10;;;0.10;;
13240;SDS011;6687;47.790;7.322;2023-01-15T11:04:47;0.10;;;0.10;;
13240;SDS011;6687;47.790;7.322;2023-01-15T11:07:14;0.08;;;0.08;;
13240;SDS011;6687;47.790;7.322;2023-01-15T11:09:41;0.25;;;0.25;;
13240;SDS011;6687;47.790;7.322;2023-01-15T11:12:15;0.40;;;0.13;;
13240;SDS011;6687;47.790;7.322;2023-01-15T11:15:12;0.00;;;0.00;;
13240;SDS011;6687;47.790;7.322;2023-01-15T11:17:59;0.10;;;0.10;;
13240;SDS011;6687;47.790;7.322;2023-01-15T11:20:45;0.98;;;0.20;;
13240;SDS011;6687;47.790;7.322;2023-01-15T11:23:14;0.20;;;0.20;;
13240;SDS011;6687;47.790;7.322;2023-01-15T11:25:47;0.17;;;0.17;;
13240;SDS011;6687;47.790;7.322;2023-01-15T11:28:15;0.20;;;0.20;;
13240;SDS011;6687;47.790;7.322;2023-01-15T11:30:51;0.20;;;0.20;;
13240;SDS011;6687;47.790;7.322;2023-01-15T11:33:22;0.47;;;0.47;;
13240;SDS011;6687;47.790;7.322;2023-01-15T11:35:52;0.00;;;0.00;;
13240;SDS011;6687;47.790;7.322;2023-01-15T11:38:22;0.03;;;0.03;;
13240;SDS011;6687;47.790;7.322;2023-01-15T11:40:50;0.20;;;0.20;;
13240;SDS011;6687;47.790;7.322;2023-01-15T11:43:19;0.10;;;0.10;;
13240;SDS011;6687;47.790;7.322;2023-01-15T11:46:04;0.30;;;0.28;;
13240;SDS011;6687;47.790;7.322;2023-01-15T11:48:50;0.28;;;0.28;;
13240;SDS011;6687;47.790;7.322;2023-01-15T11:51:36;0.13;;;0.13;;
13240;SDS011;6687;47.790;7.322;2023-01-15T11:54:07;0.55;;;0.50;;
13240;SDS011;6687;47.790;7.322;2023-01-15T11:56:40;0.08;;;0.08;;
13240;SDS011;6687;47.790;7.322;2023-01-15T11:59:09;0.10;;;0.10;;
13240;SDS011;6687;47.790;7.322;2023-01-15T12:01:39;0.10;;;0.10;;
13240;SDS011;6687;47.790;7.322;2023-01-15T12:04:23;0.35;;;0.20;;
13240;SDS011;6687;47.790;7.322;2023-01-15T12:06:54;0.00;;;0.00;;
13240;SDS011;6687;47.790;7.322;2023-01-15T12:09:23;0.20;;;0.20;;
13240;SDS011;6687;47.790;7.322;2023-01-15T12:12:02;0.30;;;0.28;;
13240;SDS011;6687;47.790;7.322;2023-01-15T12:14:40;0.20;;;0.20;;
13240;SDS011;6687;47.790;7.322;2023-01-15T12:17:24;0.10;;;0.10;;
13240;SDS011;6687;47.790;7.322;2023-01-15T12:20:07;1.65;;;0.20;;
13240;SDS011;6687;47.790;7.322;2023-01-15T12:22:49;0.00;;;0.00;;
13240;SDS011;6687;47.790;7.322;2023-01-15T12:25:39;1.02;;;0.40;;
13240;SDS011;6687;47.790;7.322;2023-01-15T12:28:16;1.38;;;1.02;;
13240;SDS011;6687;47.790;7.322;2023-01-15T12:30:51;0.10;;;0.10;;
13240;SDS011;6687;47.790;7.322;2023-01-15T12:33:27;1.30;;;0.50;;
13240;SDS011;6687;47.790;7.322;2023-01-15T12:36:06;0.15;;;0.05;;
13240;SDS011;6687;47.790;7.322;2023-01-15T12:38:41;0.82;;;0.43;;
13240;SDS011;6687;47.790;7.322;2023-01-15T12:41:15;0.00;;;0.00;;
13240;SDS011;6687;47.790;7.322;2023-01-15T12:43:47;0.38;;;0.38;;
13240;SDS011;6687;47.790;7.322;2023-01-15T12:46:36;0.32;;;0.30;;
13240;SDS011;6687;47.790;7.322;2023-01-15T12:49:08;0.47;;;0.47;;
13240;SDS011;6687;47.790;7.322;2023-01-15T12:51:49;0.70;;;0.70;;
13240;SDS011;6687;47.790;7.322;2023-01-15T12:54:22;0.43;;;0.30;;
13240;SDS011;6687;47.790;7.322;2023-01-15T12:56:54;0.30;;;0.30;;
13240;SDS011;6687;47.790;7.322;2023-01-15T12:59:27;0.30;;;0.30;;
13240;SDS011;6687;47.790;7.322;2023-01-15T13:02:01;0.85;;;0.40;;
13240;SDS011;6687;47.790;7.322;2023-01-15T13:04:38;1.60;;;0.77;;
13240;SDS011;6687;47.790;7.322;2023-01-15T13:07:13;0.32;;;0.32;;
13240;SDS011;6687;47.790;7.322;2023-01-15T13:09:47;0.38;;;0.38;;
13240;SDS011;6687;47.790;7.322;2023-01-15T13:12:19;0.15;;;0.15;;
13240;SDS011;6687;47.790;7.322;2023-01-15T13:14:46;1.23;;;0.45;;
13240;SDS011;6687;47.790;7.322;2023-01-15T13:17:16;0.50;;;0.22;;
13240;SDS011;6687;47.790;7.322;2023-01-15T13:19:57;0.22;;;0.22;;
13240;SDS011;6687;47.790;7.322;2023-01-15T13:22:41;0.20;;;0.20;;
13240;SDS011;6687;47.790;7.322;2023-01-15T13:25:26;0.28;;;0.25;;
13240;SDS011;6687;47.790;7.322;2023-01-15T13:28:04;0.47;;;0.45;;
13240;SDS011;6687;47.790;7.322;2023-01-15T13:30:48;0.63;;;0.40;;
13240;SDS011;6687;47.790;7.322;2023-01-15T13:33:26;1.63;;;0.65;;
13240;SDS011;6687;47.790;7.322;2023-01-15T13:36:01;0.20;;;0.20;;
13240;SDS011;6687;47.790;7.322;2023-01-15T13:38:35;0.10;;;0.10;;
13240;SDS011;6687;47.790;7.322;2023-01-15T13:41:06;0.17;;;0.17;;
13240;SDS011;6687;47.790;7.322;2023-01-15T13:43:34;0.32;;;0.32;;
13240;SDS011;6687;47.790;7.322;2023-01-15T13:46:04;0.25;;;0.25;;
13240;SDS011;6687;47.790;7.322;2023-01-15T13:48:33;0.47;;;0.47;;
13240;SDS011;6687;47.790;7.322;2023-01-15T13:51:05;0.40;;;0.40;;
13240;SDS011;6687;47.790;7.322;2023-01-15T13:53:48;0.47;;;0.47;;
13240;SDS011;6687;47.790;7.322;2023-01-15T13:56:24;0.20;;;0.20;;
13240;SDS011;6687;47.790;7.322;2023-01-15T13:58:53;0.20;;;0.20;;
13240;SDS011;6687;47.790;7.322;2023-01-15T14:01:21;0.15;;;0.15;;
13240;SDS011;6687;47.790;7.322;2023-01-15T14:03:58;0.20;;;0.20;;
13240;SDS011;6687;47.790;7.322;2023-01-15T14:06:34;0.40;;;0.40;;
13240;SDS011;6687;47.790;7.322;2023-01-15T14:09:04;0.20;;;0.20;;
13240;SDS011;6687;47.790;7.322;2023-01-15T14:11:33;0.65;;;0.65;;
13240;SDS011;6687;47.790;7.322;2023-01-15T14:14:12;0.30;;;0.30;;
13240;SDS011;6687;47.790;7.322;2023-01-15T14:17:01;0.30;;;0.30;;
13240;SDS011;6687;47.790;7.322;2023-01-15T14:19:40;0.52;;;0.52;;
13240;SDS011;6687;47.790;7.322;2023-01-15T14:22:34;0.40;;;0.40;;
13240;SDS011;6687;47.790;7.322;2023-01-15T14:25:19;1.48;;;0.60;;
13240;SDS011;6687;47.790;7.322;2023-01-15T14:28:11;0.50;;;0.50;;
13240;SDS011;6687;47.790;7.322;2023-01-15T14:33:43;0.28;;;0.28;;
13240;SDS011;6687;47.790;7.322;2023-01-15T14:36:22;0.38;;;0.38;;
13240;SDS011;6687;47.790;7.322;2023-01-15T14:38:54;1.35;;;0.32;;
13240;SDS011;6687;47.790;7.322;2023-01-15T14:41:26;0.93;;;0.75;;
13240;SDS011;6687;47.790;7.322;2023-01-15T14:43:55;0.45;;;0.45;;
13240;SDS011;6687;47.790;7.322;2023-01-15T14:46:25;0.45;;;0.45;;
13240;SDS011;6687;47.790;7.322;2023-01-15T14:48:57;0.95;;;0.80;;
13240;SDS011;6687;47.790;7.322;2023-01-15T14:51:25;0.43;;;0.32;;
13240;SDS011;6687;47.790;7.322;2023-01-15T14:53:54;0.38;;;0.25;;
13240;SDS011;6687;47.790;7.322;2023-01-15T14:56:24;0.20;;;0.20;;
13240;SDS011;6687;47.790;7.322;2023-01-15T14:58:58;0.40;;;0.20;;
13240;SDS011;6687;47.790;7.322;2023-01-15T15:01:31;0.63;;;0.50;;
13240;SDS011;6687;47.790;7.322;2023-01-15T15:04:04;0.20;;;0.20;;
13240;SDS011;6687;47.790;7.322;2023-01-15T15:06:43;0.73;;;0.55;;
13240;SDS011;6687;47.790;7.322;2023-01-15T15:09:12;0.40;;;0.40;;
13240;SDS011;6687;47.790;7.322;2023-01-15T15:11:46;0.80;;;0.45;;
13240;SDS011;6687;47.790;7.322;2023-01-15T15:14:33;0.28;;;0.20;;
13240;SDS011;6687;47.790;7.322;2023-01-15T15:17:04;0.25;;;0.22;;
13240;SDS011;6687;47.790;7.322;2023-01-15T15:19:44;1.33;;;0.60;;
13240;SDS011;6687;47.790;7.322;2023-01-15T15:22:16;1.63;;;0.60;;
13240;SDS011;6687;47.790;7.322;2023-01-15T15:24:46;0.82;;;0.47;;
13240;SDS011;6687;47.790;7.322;2023-01-15T15:27:19;0.30;;;0.30;;
13240;SDS011;6687;47.790;7.322;2023-01-15T15:29:47;1.65;;;0.73;;
13240;SDS011;6687;47.790;7.322;2023-01-15T15:32:16;3.30;;;0.95;;
13240;SDS011;6687;47.790;7.322;2023-01-15T15:34:45;2.35;;;0.88;;
13240;SDS011;6687;47.790;7.322;2023-01-15T15:37:15;0.85;;;0.38;;
13240;SDS011;6687;47.790;7.322;2023-01-15T15:39:44;1.45;;;0.52;;
13240;SDS011;6687;47.790;7.322;2023-01-15T15:42:18;0.63;;;0.40;;
13240;SDS011;6687;47.790;7.322;2023-01-15T15:45:11;0.30;;;0.30;;
13240;SDS011;6687;47.790;7.322;2023-01-15T15:48:07;0.30;;;0.30;;
13240;SDS011;6687;47.790;7.322;2023-01-15T15:50:55;0.25;;;0.25;;
13240;SDS011;6687;47.790;7.322;2023-01-15T15:53:22;0.45;;;0.45;;
13240;SDS011;6687;47.790;7.322;2023-01-15T15:55:49;0.15;;;0.15;;
13240;SDS011;6687;47.790;7.322;2023-01-15T15:58:20;0.10;;;0.10;;
13240;SDS011;6687;47.790;7.322;2023-01-15T16:00:50;0.38;;;0.30;;
13240;SDS011;6687;47.790;7.322;2023-01-15T16:03:18;1.13;;;0.57;;
13240;SDS011;6687;47.790;7.322;2023-01-15T16:05:54;0.85;;;0.77;;
13240;SDS011;6687;47.790;7.322;2023-01-15T16:08:22;0.88;;;0.47;;
13240;SDS011;6687;47.790;7.322;2023-01-15T16:10:50;1.10;;;0.95;;
13240;SDS011;6687;47.790;7.322;2023-01-15T16:13:22;2.85;;;1.45;;
13240;SDS011;6687;47.790;7.322;2023-01-15T16:15:52;0.75;;;0.73;;
13240;SDS011;6687;47.790;7.322;2023-01-15T16:18:23;0.57;;;0.55;;
13240;SDS011;6687;47.790;7.322;2023-01-15T16:20:51;0.32;;;0.32;;
13240;SDS011;6687;47.790;7.322;2023-01-15T16:23:19;0.52;;;0.52;;
13240;SDS011;6687;47.790;7.322;2023-01-15T16:25:54;1.30;;;0.85;;
13240;SDS011;6687;47.790;7.322;2023-01-15T16:28:26;0.40;;;0.40;;
13240;SDS011;6687;47.790;7.322;2023-01-15T16:30:57;0.38;;;0.35;;
13240;SDS011;6687;47.790;7.322;2023-01-15T16:33:26;0.50;;;0.50;;
13240;SDS011;6687;47.790;7.322;2023-01-15T16:35:54;0.77;;;0.60;;
13240;SDS011;6687;47.790;7.322;2023-01-15T16:38:22;0.50;;;0.50;;
13240;SDS011;6687;47.790;7.322;2023-01-15T16:40:50;2.78;;;1.00;;
13240;SDS011;6687;47.790;7.322;2023-01-15T16:43:18;0.75;;;0.30;;
13240;SDS011;6687;47.790;7.322;2023-01-15T16:45:59;0.28;;;0.28;;
13240;SDS011;6687;47.790;7.322;2023-01-15T16:48:29;0.55;;;0.40;;
13240;SDS011;6687;47.790;7.322;2023-01-15T16:51:21;2.97;;;1.02;;
13240;SDS011;6687;47.790;7.322;2023-01-15T16:53:53;0.20;;;0.20;;
13240;SDS011;6687;47.790;7.322;2023-01-15T16:56:24;0.63;;;0.30;;
13240;SDS011;6687;47.790;7.322;2023-01-15T16:59:13;1.15;;;0.80;;
13240;SDS011;6687;47.790;7.322;2023-01-15T17:01:44;1.05;;;0.93;;
13240;SDS011;6687;47.790;7.322;2023-01-15T17:04:16;1.00;;;0.82;;
13240;SDS011;6687;47.790;7.322;2023-01-15T17:06:52;1.15;;;1.13;;
13240;SDS011;6687;47.790;7.322;2023-01-15T17:09:21;0.32;;;0.30;;
13240;SDS011;6687;47.790;7.322;2023-01-15T17:11:48;0.45;;;0.45;;
13240;SDS011;6687;47.790;7.322;2023-01-15T17:14:19;1.65;;;0.40;;
13240;SDS011;6687;47.790;7.322;2023-01-15T17:16:48;1.63;;;0.90;;
13240;SDS011;6687;47.790;7.322;2023-01-15T17:19:42;1.17;;;0.68;;
13240;SDS011;6687;47.790;7.322;2023-01-15T17:22:10;0.88;;;0.60;;
13240;SDS011;6687;47.790;7.322;2023-01-15T17:24:47;2.38;;;0.82;;
13240;SDS011;6687;47.790;7.322;2023-01-15T17:27:14;0.45;;;0.45;;
13240;SDS011;6687;47.790;7.322;2023-01-15T17:29:41;0.90;;;0.80;;
13240;SDS011;6687;47.790;7.322;2023-01-15T17:32:10;0.40;;;0.40;;
13240;SDS011;6687;47.790;7.322;2023-01-15T17:34:41;1.00;;;1.00;;
13240;SDS011;6687;47.790;7.322;2023-01-15T17:37:07;0.52;;;0.52;;
13240;SDS011;6687;47.790;7.322;2023-01-15T17:39:34;0.82;;;0.82;;
13240;SDS011;6687;47.790;7.322;2023-01-15T17:42:01;0.20;;;0.20;;
13240;SDS011;6687;47.790;7.322;2023-01-15T17:44:28;1.75;;;0.60;;
13240;SDS011;6687;47.790;7.322;2023-01-15T17:46:54;0.13;;;0.13;;
13240;SDS011;6687;47.790;7.322;2023-01-15T17:49:21;0.45;;;0.30;;
13240;SDS011;6687;47.790;7.322;2023-01-15T17:51:49;0.80;;;0.50;;
13240;SDS011;6687;47.790;7.322;2023-01-15T17:54:16;1.15;;;0.57;;
13240;SDS011;6687;47.790;7.322;2023-01-15T17:57:03;0.30;;;0.30;;
13240;SDS011;6687;47.790;7.322;2023-01-15T17:59:47;0.55;;;0.55;;
13240;SDS011;6687;47.790;7.322;2023-01-15T18:02:31;0.52;;;0.52;;
13240;SDS011;6687;47.790;7.322;2023-01-15T18:05:15;0.43;;;0.43;;
13240;SDS011;6687;47.790;7.322;2023-01-15T18:07:52;0.40;;;0.40;;
13240;SDS011;6687;47.790;7.322;2023-01-15T18:10:21;2.10;;;0.47;;
13240;SDS011;6687;47.790;7.322;2023-01-15T18:12:49;0.80;;;0.60;;
13240;SDS011;6687;47.790;7.322;2023-01-15T18:15:17;0.50;;;0.43;;
13240;SDS011;6687;47.790;7.322;2023-01-15T18:17:44;2.00;;;0.22;;
13240;SDS011;6687;47.790;7.322;2023-01-15T18:20:11;0.57;;;0.57;;
13240;SDS011;6687;47.790;7.322;2023-01-15T18:22:38;0.30;;;0.30;;
13240;SDS011;6687;47.790;7.322;2023-01-15T18:25:06;0.22;;;0.20;;
13240;SDS011;6687;47.790;7.322;2023-01-15T18:27:35;0.52;;;0.52;;
13240;SDS011;6687;47.790;7.322;2023-01-15T18:30:07;1.27;;;0.22;;
13240;SDS011;6687;47.790;7.322;2023-01-15T18:32:35;1.17;;;0.55;;
13240;SDS011;6687;47.790;7.322;2023-01-15T18:35:02;0.30;;;0.30;;
13240;SDS011;6687;47.790;7.322;2023-01-15T18:37:29;0.55;;;0.55;;
13240;SDS011;6687;47.790;7.322;2023-01-15T18:39:56;0.32;;;0.32;;
13240;SDS011;6687;47.790;7.322;2023-01-15T18:42:24;2.22;;;1.38;;
13240;SDS011;6687;47.790;7.322;2023-01-15T18:45:08;1.15;;;1.05;;
13240;SDS011;6687;47.790;7.322;2023-01-15T18:47:54;0.63;;;0.63;;
13240;SDS011;6687;47.790;7.322;2023-01-15T18:50:20;1.20;;;1.10;;
13240;SDS011;6687;47.790;7.322;2023-01-15T18:52:47;2.50;;;1.45;;
13240;SDS011;6687;47.790;7.322;2023-01-15T18:55:15;0.75;;;0.65;;
13240;SDS011;6687;47.790;7.322;2023-01-15T18:57:44;1.10;;;1.00;;
13240;SDS011;6687;47.790;7.322;2023-01-15T19:00:11;1.45;;;1.25;;
13240;SDS011;6687;47.790;7.322;2023-01-15T19:02:38;1.17;;;1.15;;
13240;SDS011;6687;47.790;7.322;2023-01-15T19:05:05;0.65;;;0.60;;
13240;SDS011;6687;47.790;7.322;2023-01-15T19:07:35;0.88;;;0.88;;
13240;SDS011;6687;47.790;7.322;2023-01-15T19:10:02;2.35;;;0.90;;
13240;SDS011;6687;47.790;7.322;2023-01-15T19:12:30;0.82;;;0.77;;
13240;SDS011;6687;47.790;7.322;2023-01-15T19:14:58;1.20;;;1.10;;
13240;SDS011;6687;47.790;7.322;2023-01-15T19:17:42;1.40;;;1.20;;
13240;SDS011;6687;47.790;7.322;2023-01-15T19:20:27;1.10;;;0.90;;
13240;SDS011;6687;47.790;7.322;2023-01-15T19:22:54;2.75;;;1.92;;
13240;SDS011;6687;47.790;7.322;2023-01-15T19:25:29;4.43;;;2.40;;
13240;SDS011;6687;47.790;7.322;2023-01-15T19:27:57;3.33;;;1.60;;
13240;SDS011;6687;47.790;7.322;2023-01-15T19:30:26;1.85;;;1.75;;
13240;SDS011;6687;47.790;7.322;2023-01-15T19:32:56;0.95;;;0.90;;
13240;SDS011;6687;47.790;7.322;2023-01-15T19:35:22;1.90;;;1.50;;
13240;SDS011;6687;47.790;7.322;2023-01-15T19:37:49;1.70;;;1.17;;
13240;SDS011;6687;47.790;7.322;2023-01-15T19:40:17;1.52;;;1.13;;
13240;SDS011;6687;47.790;7.322;2023-01-15T19:42:45;0.52;;;0.52;;
13240;SDS011;6687;47.790;7.322;2023-01-15T19:45:31;1.05;;;0.98;;
13240;SDS011;6687;47.790;7.322;2023-01-15T19:48:16;2.20;;;1.52;;
13240;SDS011;6687;47.790;7.322;2023-01-15T19:51:03;2.28;;;1.60;;
13240;SDS011;6687;47.790;7.322;2023-01-15T19:53:30;1.25;;;1.13;;
13240;SDS011;6687;47.790;7.322;2023-01-15T19:55:58;1.77;;;1.30;;
13240;SDS011;6687;47.790;7.322;2023-01-15T19:58:24;1.73;;;1.20;;
13240;SDS011;6687;47.790;7.322;2023-01-15T20:00:52;1.52;;;1.30;;
13240;SDS011;6687;47.790;7.322;2023-01-15T20:03:19;1.52;;;1.42;;
13240;SDS011;6687;47.790;7.322;2023-01-15T20:05:46;1.52;;;1.20;;
13240;SDS011;6687;47.790;7.322;2023-01-15T20:08:13;3.55;;;2.22;;
13240;SDS011;6687;47.790;7.322;2023-01-15T20:10:42;1.33;;;1.23;;
13240;SDS011;6687;47.790;7.322;2023-01-15T20:13:11;1.92;;;1.48;;
13240;SDS011;6687;47.790;7.322;2023-01-15T20:16:05;1.95;;;1.50;;
13240;SDS011;6687;47.790;7.322;2023-01-15T20:18:33;1.60;;;1.50;;
13240;SDS011;6687;47.790;7.322;2023-01-15T20:21:00;0.90;;;0.90;;
13240;SDS011;6687;47.790;7.322;2023-01-15T20:23:26;1.05;;;0.93;;
13240;SDS011;6687;47.790;7.322;2023-01-15T20:25:53;1.15;;;0.98;;
13240;SDS011;6687;47.790;7.322;2023-01-15T20:28:25;0.70;;;0.70;;
13240;SDS011;6687;47.790;7.322;2023-01-15T20:30:52;1.20;;;1.10;;
13240;SDS011;6687;47.790;7.322;2023-01-15T20:33:21;1.83;;;1.33;;
13240;SDS011;6687;47.790;7.322;2023-01-15T20:35:48;1.52;;;1.42;;
13240;SDS011;6687;47.790;7.322;2023-01-15T20:38:17;1.02;;;1.02;;
13240;SDS011;6687;47.790;7.322;2023-01-15T20:40:44;2.45;;;1.73;;
13240;SDS011;6687;47.790;7.322;2023-01-15T20:43:11;1.58;;;1.30;;
13240;SDS011;6687;47.790;7.322;2023-01-15T20:46:04;0.98;;;0.80;;
13240;SDS011;6687;47.790;7.322;2023-01-15T20:48:33;0.88;;;0.88;;
13240;SDS011;6687;47.790;7.322;2023-01-15T20:51:17;0.98;;;0.85;;
13240;SDS011;6687;47.790;7.322;2023-01-15T20:53:44;0.63;;;0.63;;
13240;SDS011;6687;47.790;7.322;2023-01-15T20:56:14;0.57;;;0.57;;
13240;SDS011;6687;47.790;7.322;2023-01-15T20:58:41;0.40;;;0.40;;
13240;SDS011;6687;47.790;7.322;2023-01-15T21:01:08;1.75;;;1.00;;
13240;SDS011;6687;47.790;7.322;2023-01-15T21:03:37;1.27;;;1.17;;
13240;SDS011;6687;47.790;7.322;2023-01-15T21:06:04;0.68;;;0.68;;
13240;SDS011;6687;47.790;7.322;2023-01-15T21:08:32;0.70;;;0.70;;
13240;SDS011;6687;47.790;7.322;2023-01-15T21:10:59;1.08;;;0.95;;
13240;SDS011;6687;47.790;7.322;2023-01-15T21:13:26;0.68;;;0.68;;
13240;SDS011;6687;47.790;7.322;2023-01-15T21:15:54;1.77;;;1.67;;
13240;SDS011;6687;47.790;7.322;2023-01-15T21:18:22;1.10;;;0.80;;
13240;SDS011;6687;47.790;7.322;2023-01-15T21:20:50;3.53;;;1.88;;
13240;SDS011;6687;47.790;7.322;2023-01-15T21:23:17;2.97;;;1.25;;
13240;SDS011;6687;47.790;7.322;2023-01-15T21:25:44;1.48;;;1.17;;
13240;SDS011;6687;47.790;7.322;2023-01-15T21:28:11;2.40;;;1.40;;
13240;SDS011;6687;47.790;7.322;2023-01-15T21:30:37;1.83;;;1.67;;
13240;SDS011;6687;47.790;7.322;2023-01-15T21:33:04;1.63;;;0.98;;
13240;SDS011;6687;47.790;7.322;2023-01-15T21:35:32;1.27;;;1.08;;
13240;SDS011;6687;47.790;7.322;2023-01-15T21:38:00;2.45;;;1.75;;
13240;SDS011;6687;47.790;7.322;2023-01-15T21:40:26;0.85;;;0.85;;
13240;SDS011;6687;47.790;7.322;2023-01-15T21:42:53;1.63;;;0.75;;
13240;SDS011;6687;47.790;7.322;2023-01-15T21:45:37;0.85;;;0.85;;